Time;durP1;ratioP1;P1;durP2;ratioP2;P2;SDS_P1;SDS_P2;PMS_P1;PMS_P2;Temp;Humidity;BMP_temperature;BMP_pressure;BME280_temperature;BME280_humidity;BME280_pressure;Samples;Min_cycle;Max_cycle;Signal;HPM_P1;HPM_P2
2024/02/17 00:01:31;;;;;;;7.10;1.00;;;;;;;;;;5102991;28;20051;-75
2024/02/17 00:04:13;;;;;;;2.22;1.10;;;;;;;;;;5102868;27;20051;-75
2024/02/17 00:06:44;;;;;;;1.02;0.77;;;;;;;;;;5102884;28;20055;-75
2024/02/17 00:09:15;;;;;;;1.75;0.80;;;;;;;;;;5103733;28;20055;-76
2024/02/17 00:11:45;;;;;;;2.42;1.05;;;;;;;;;;5103247;28;20050;-76
2024/02/17 00:14:15;;;;;;;0.80;0.80;;;;;;;;;;5103787;28;20051;-74
2024/02/17 00:16:46;;;;;;;6.55;1.38;;;;;;;;;;5102887;28;20145;-75
2024/02/17 00:19:16;;;;;;;2.63;0.70;;;;;;;;;;5103457;28;20759;-76
2024/02/17 00:21:47;;;;;;;8.93;1.00;;;;;;;;;;5103167;28;20066;-76
2024/02/17 00:24:17;;;;;;;4.57;1.05;;;;;;;;;;5103426;28;20418;-76
2024/02/17 00:26:48;;;;;;;6.63;1.15;;;;;;;;;;5100898;28;20051;-75
2024/02/17 00:29:20;;;;;;;1.30;0.80;;;;;;;;;;5102570;28;20635;-76
2024/02/17 00:31:51;;;;;;;1.58;0.80;;;;;;;;;;5103118;28;20054;-76
2024/02/17 00:34:23;;;;;;;2.15;0.82;;;;;;;;;;5103305;28;20043;-75
2024/02/17 00:36:53;;;;;;;1.30;0.90;;;;;;;;;;5102579;28;20048;-76
2024/02/17 00:39:25;;;;;;;1.40;0.77;;;;;;;;;;5103563;28;20047;-74
2024/02/17 00:42:40;;;;;;;5.90;1.15;;;;;;;;;;5102000;28;20048;-75
2024/02/17 00:45:48;;;;;;;0.98;0.68;;;;;;;;;;5102890;28;20043;-76
2024/02/17 00:48:18;;;;;;;1.77;0.80;;;;;;;;;;5102412;28;20047;-76
2024/02/17 00:50:49;;;;;;;1.80;0.80;;;;;;;;;;5102745;28;20051;-75
2024/02/17 00:53:30;;;;;;;2.10;0.73;;;;;;;;;;5101803;28;20055;-76
2024/02/17 00:56:00;;;;;;;0.35;0.35;;;;;;;;;;5102639;28;20417;-76
2024/02/17 00:58:30;;;;;;;0.77;0.63;;;;;;;;;;5101965;28;20078;-74
2024/02/17 01:01:00;;;;;;;2.50;0.70;;;;;;;;;;5100538;28;20055;-75
2024/02/17 01:03:31;;;;;;;0.95;0.60;;;;;;;;;;5101242;28;20062;-75
2024/02/17 01:06:03;;;;;;;1.92;0.98;;;;;;;;;;5098555;28;20048;-76
2024/02/17 01:08:37;;;;;;;1.25;0.80;;;;;;;;;;5101624;28;20589;-74
2024/02/17 01:11:07;;;;;;;2.17;0.73;;;;;;;;;;5101109;28;20087;-76
2024/02/17 01:13:40;;;;;;;1.33;0.85;;;;;;;;;;5101390;28;20414;-75
2024/02/17 01:16:11;;;;;;;1.20;0.45;;;;;;;;;;5102909;28;20398;-75
2024/02/17 01:18:41;;;;;;;2.72;0.90;;;;;;;;;;5102538;28;20047;-76
2024/02/17 01:21:12;;;;;;;0.82;0.77;;;;;;;;;;5101844;28;20047;-76
2024/02/17 01:23:43;;;;;;;1.63;0.52;;;;;;;;;;5102467;28;20422;-75
2024/02/17 01:26:14;;;;;;;0.60;0.60;;;;;;;;;;5102290;28;20058;-75
2024/02/17 01:28:44;;;;;;;0.88;0.70;;;;;;;;;;5105228;28;20082;-75
2024/02/17 01:31:15;;;;;;;2.10;0.85;;;;;;;;;;5106515;28;20062;-75
2024/02/17 01:33:49;;;;;;;1.85;0.70;;;;;;;;;;5105647;28;20130;-76
2024/02/17 01:36:22;;;;;;;3.72;0.80;;;;;;;;;;5106951;28;20048;-74
2024/02/17 01:38:55;;;;;;;6.07;0.90;;;;;;;;;;5105707;28;20056;-75
2024/02/17 01:41:25;;;;;;;1.83;0.60;;;;;;;;;;5106676;28;20066;-74
2024/02/17 01:43:56;;;;;;;1.08;0.75;;;;;;;;;;5106311;28;20533;-74
2024/02/17 01:46:27;;;;;;;3.42;1.00;;;;;;;;;;5106594;28;20043;-75
2024/02/17 01:48:59;;;;;;;4.40;0.95;;;;;;;;;;5105165;28;20059;-75
2024/02/17 01:51:29;;;;;;;0.70;0.70;;;;;;;;;;5105824;28;20058;-75
2024/02/17 01:54:00;;;;;;;1.42;0.80;;;;;;;;;;5103721;28;20078;-75
2024/02/17 01:56:32;;;;;;;1.17;0.65;;;;;;;;;;5106441;28;20051;-75
2024/02/17 01:59:03;;;;;;;0.60;0.40;;;;;;;;;;5106682;28;20490;-75
2024/02/17 02:01:35;;;;;;;1.58;0.60;;;;;;;;;;5106499;28;20638;-75
2024/02/17 02:04:25;;;;;;;1.15;0.50;;;;;;;;;;5104703;28;20422;-75
2024/02/17 02:07:02;;;;;;;0.93;0.50;;;;;;;;;;5103824;28;20078;-75
2024/02/17 02:09:32;;;;;;;1.52;0.70;;;;;;;;;;5104932;28;20149;-75
2024/02/17 02:12:03;;;;;;;2.28;0.75;;;;;;;;;;5106433;28;20624;-74
2024/02/17 02:14:34;;;;;;;1.70;0.60;;;;;;;;;;5106112;28;20043;-75
2024/02/17 02:17:04;;;;;;;1.30;0.75;;;;;;;;;;5105369;28;20059;-75
2024/02/17 02:19:35;;;;;;;4.22;0.70;;;;;;;;;;5105363;28;20047;-75
2024/02/17 02:22:05;;;;;;;1.35;0.70;;;;;;;;;;5105650;28;20052;-75
2024/02/17 02:24:37;;;;;;;0.57;0.55;;;;;;;;;;5105384;28;20055;-75
2024/02/17 02:27:08;;;;;;;1.50;0.68;;;;;;;;;;5105479;28;20502;-77
2024/02/17 02:29:44;;;;;;;0.65;0.60;;;;;;;;;;5105909;28;20055;-75
2024/02/17 02:32:14;;;;;;;0.43;0.43;;;;;;;;;;5104448;28;20985;-74
2024/02/17 02:34:47;;;;;;;0.68;0.52;;;;;;;;;;5105133;28;20051;-75
2024/02/17 02:37:18;;;;;;;1.85;0.57;;;;;;;;;;5105486;28;20607;-75
2024/02/17 02:39:48;;;;;;;4.57;0.88;;;;;;;;;;5104553;28;20059;-75
2024/02/17 02:42:18;;;;;;;2.92;0.68;;;;;;;;;;5105357;28;20048;-75
2024/02/17 02:44:48;;;;;;;0.85;0.65;;;;;;;;;;5105289;28;20056;-75
2024/02/17 02:47:19;;;;;;;0.68;0.50;;;;;;;;;;5105567;28;20498;-75
2024/02/17 02:49:51;;;;;;;0.95;0.45;;;;;;;;;;5104856;28;20418;-75
2024/02/17 02:52:21;;;;;;;1.08;0.63;;;;;;;;;;5105394;28;20062;-75
2024/02/17 02:54:52;;;;;;;0.85;0.40;;;;;;;;;;5105131;28;20050;-75
2024/02/17 02:57:23;;;;;;;2.58;0.70;;;;;;;;;;5104805;28;20043;-75
2024/02/17 02:59:54;;;;;;;0.95;0.60;;;;;;;;;;5105004;28;20051;-74
2024/02/17 03:02:24;;;;;;;2.20;0.50;;;;;;;;;;5105119;28;20421;-75
2024/02/17 03:04:55;;;;;;;3.65;0.82;;;;;;;;;;5104992;28;20054;-75
2024/02/17 03:07:28;;;;;;;6.03;1.25;;;;;;;;;;5104206;28;20052;-75
2024/02/17 03:09:58;;;;;;;1.38;0.45;;;;;;;;;;5105183;28;20070;-75
2024/02/17 03:12:28;;;;;;;3.00;0.98;;;;;;;;;;5104401;28;20058;-75
2024/02/17 03:15:01;;;;;;;5.72;0.90;;;;;;;;;;5103698;28;20055;-75
2024/02/17 03:17:32;;;;;;;0.38;0.30;;;;;;;;;;5105423;28;20606;-75
2024/02/17 03:20:47;;;;;;;1.23;0.77;;;;;;;;;;5104809;28;20054;-75
2024/02/17 03:23:25;;;;;;;1.02;0.50;;;;;;;;;;5103074;28;20418;-74
2024/02/17 03:25:55;;;;;;;1.77;0.70;;;;;;;;;;5105010;28;20771;-75
2024/02/17 03:28:25;;;;;;;0.85;0.70;;;;;;;;;;5103850;28;20513;-75
2024/02/17 03:30:56;;;;;;;1.10;0.85;;;;;;;;;;5104154;28;20056;-76
2024/02/17 03:33:27;;;;;;;3.17;0.90;;;;;;;;;;5104314;28;20054;-75
2024/02/17 03:36:01;;;;;;;1.67;0.55;;;;;;;;;;5104181;28;20052;-75
2024/02/17 03:38:31;;;;;;;5.90;1.40;;;;;;;;;;5104272;28;20047;-75
2024/02/17 03:42:06;;;;;;;2.90;1.00;;;;;;;;;;5104123;28;20051;-75
2024/02/17 03:44:37;;;;;;;3.05;0.60;;;;;;;;;;5104632;28;20044;-75
2024/02/17 03:47:07;;;;;;;5.32;1.55;;;;;;;;;;5103355;28;20223;-75
2024/02/17 03:49:37;;;;;;;4.55;0.65;;;;;;;;;;5104474;28;20050;-75
2024/02/17 03:52:08;;;;;;;4.07;0.70;;;;;;;;;;5103217;28;20054;-75
2024/02/17 03:54:42;;;;;;;0.82;0.52;;;;;;;;;;5103525;28;20868;-75
2024/02/17 03:57:13;;;;;;;3.85;0.65;;;;;;;;;;5102957;28;20633;-75
2024/02/17 03:59:43;;;;;;;0.50;0.50;;;;;;;;;;5103621;28;20051;-75
2024/02/17 04:02:14;;;;;;;3.28;0.73;;;;;;;;;;5103666;28;20692;-75
2024/02/17 04:04:44;;;;;;;3.28;0.68;;;;;;;;;;5102600;27;20510;-75
2024/02/17 04:07:15;;;;;;;2.28;0.60;;;;;;;;;;5102800;28;20062;-75
2024/02/17 04:09:46;;;;;;;2.40;0.50;;;;;;;;;;5103951;28;20410;-75
2024/02/17 04:12:17;;;;;;;2.10;0.60;;;;;;;;;;5103846;28;20039;-75
2024/02/17 04:14:49;;;;;;;3.38;0.77;;;;;;;;;;5104344;28;20090;-75
2024/02/17 04:17:19;;;;;;;3.13;1.08;;;;;;;;;;5102898;28;20586;-75
2024/02/17 04:19:49;;;;;;;3.20;0.57;;;;;;;;;;5103933;28;20062;-75
2024/02/17 04:22:20;;;;;;;0.55;0.43;;;;;;;;;;5103778;28;20062;-75
2024/02/17 04:24:50;;;;;;;1.45;0.70;;;;;;;;;;5103266;28;20062;-75
2024/02/17 04:27:22;;;;;;;1.92;0.57;;;;;;;;;;5102731;28;20056;-75
2024/02/17 04:29:53;;;;;;;3.30;0.70;;;;;;;;;;5102013;28;20052;-75
2024/02/17 04:32:25;;;;;;;3.85;0.82;;;;;;;;;;5103039;28;20043;-75
2024/02/17 04:34:55;;;;;;;1.00;0.82;;;;;;;;;;5102721;28;20052;-75
2024/02/17 04:37:27;;;;;;;1.50;0.70;;;;;;;;;;5103389;28;20047;-75
2024/02/17 04:39:57;;;;;;;2.45;0.47;;;;;;;;;;5102525;28;20050;-74
2024/02/17 04:42:27;;;;;;;1.45;0.77;;;;;;;;;;5103356;28;20561;-75
2024/02/17 04:44:58;;;;;;;0.63;0.55;;;;;;;;;;5102615;28;20040;-75
2024/02/17 04:47:28;;;;;;;1.73;0.93;;;;;;;;;;5102720;28;20043;-75
2024/02/17 04:49:59;;;;;;;1.48;0.68;;;;;;;;;;5101577;28;20410;-75
2024/02/17 04:52:29;;;;;;;2.17;0.90;;;;;;;;;;5102116;28;20591;-75
2024/02/17 04:54:59;;;;;;;3.97;0.88;;;;;;;;;;5102797;28;20055;-74
2024/02/17 04:57:30;;;;;;;1.38;0.98;;;;;;;;;;5100545;28;20051;-75
2024/02/17 05:00:05;;;;;;;2.88;0.80;;;;;;;;;;5102956;28;20048;-75
2024/02/17 05:02:36;;;;;;;0.93;0.38;;;;;;;;;;5102361;28;20387;-75
2024/02/17 05:05:07;;;;;;;1.50;0.65;;;;;;;;;;5103146;28;20054;-75
2024/02/17 05:07:36;;;;;;;2.90;0.77;;;;;;;;;;5101127;28;20066;-75
2024/02/17 05:10:08;;;;;;;2.15;0.50;;;;;;;;;;5100540;28;20066;-75
2024/02/17 05:12:38;;;;;;;4.47;0.60;;;;;;;;;;5101910;28;20051;-75
2024/02/17 05:15:08;;;;;;;7.80;0.55;;;;;;;;;;5102548;28;20055;-75
2024/02/17 05:18:13;;;;;;;5.95;0.80;;;;;;;;;;5101703;28;20098;-74
2024/02/17 05:20:44;;;;;;;2.20;0.65;;;;;;;;;;5101667;28;20514;-74
2024/02/17 05:23:14;;;;;;;3.17;0.70;;;;;;;;;;5101817;28;20047;-75
2024/02/17 05:25:45;;;;;;;4.47;0.70;;;;;;;;;;5102371;28;20055;-75
2024/02/17 05:33:17;;;;;;;6.55;0.90;;;;;;;;;;5019457;28;20057;-74
2024/02/17 05:35:49;;;;;;;0.93;0.45;;;;;;;;;;5018943;28;20072;-75
2024/02/17 05:38:20;;;;;;;1.98;0.77;;;;;;;;;;5020025;28;20052;-75
2024/02/17 05:40:50;;;;;;;2.55;0.52;;;;;;;;;;5074382;28;20052;-75
2024/02/17 05:43:20;;;;;;;3.50;1.13;;;;;;;;;;5078948;28;20056;-74
2024/02/17 05:45:51;;;;;;;4.68;0.80;;;;;;;;;;5078879;28;20062;-75
2024/02/17 05:48:21;;;;;;;2.17;0.52;;;;;;;;;;5079653;28;20063;-75
2024/02/17 05:50:53;;;;;;;3.40;0.88;;;;;;;;;;5079439;28;20056;-75
2024/02/17 05:53:24;;;;;;;5.40;0.93;;;;;;;;;;5079070;28;20399;-75
2024/02/17 05:55:55;;;;;;;0.63;0.57;;;;;;;;;;5061271;28;20114;-75
2024/02/17 05:58:26;;;;;;;1.27;0.70;;;;;;;;;;5078856;28;20056;-75
2024/02/17 06:01:00;;;;;;;0.47;0.45;;;;;;;;;;5060606;28;20060;-75
2024/02/17 06:03:33;;;;;;;1.80;0.80;;;;;;;;;;5088487;28;20066;-75
2024/02/17 06:06:04;;;;;;;6.05;0.77;;;;;;;;;;5102212;28;20059;-75
2024/02/17 06:12:16;;;;;;;1.35;0.40;;;;;;;;;;5102232;28;20054;-75
2024/02/17 06:14:46;;;;;;;0.40;0.40;;;;;;;;;;5103821;28;20055;-75
2024/02/17 06:21:10;;;;;;;1.45;0.65;;;;;;;;;;5100997;28;20063;-75
2024/02/17 06:23:42;;;;;;;3.53;0.40;;;;;;;;;;5105793;28;20414;-75
2024/02/17 06:26:27;;;;;;;0.93;0.70;;;;;;;;;;5105618;28;20047;-75
2024/02/17 06:29:06;;;;;;;1.17;0.70;;;;;;;;;;5105837;28;20508;-75
2024/02/17 06:31:36;;;;;;;0.70;0.60;;;;;;;;;;5105972;28;20047;-75
2024/02/17 06:34:07;;;;;;;2.08;0.90;;;;;;;;;;5105249;28;20058;-75
2024/02/17 06:36:38;;;;;;;1.38;0.80;;;;;;;;;;5105256;28;20070;-75
2024/02/17 06:39:09;;;;;;;3.95;0.70;;;;;;;;;;5105092;28;20055;-75
2024/02/17 06:42:43;;;;;;;2.63;0.70;;;;;;;;;;5105249;28;20051;-75
2024/02/17 06:45:16;;;;;;;1.05;0.70;;;;;;;;;;5105279;28;20047;-74
2024/02/17 06:47:47;;;;;;;4.28;0.70;;;;;;;;;;5105036;28;20483;-75
2024/02/17 06:50:18;;;;;;;1.92;0.30;;;;;;;;;;5105713;28;20418;-75
2024/02/17 06:52:53;;;;;;;;;;;;;;;;;;5105790;28;20044;-75
2024/02/17 06:55:23;;;;;;;2.25;0.70;;;;;;;;;;5103931;28;19930;-75
2024/02/17 06:57:54;;;;;;;2.05;0.60;;;;;;;;;;5104959;28;20513;-75
2024/02/17 07:00:24;;;;;;;2.72;0.75;;;;;;;;;;5104857;28;20039;-75
2024/02/17 07:02:55;;;;;;;0.63;0.60;;;;;;;;;;5104753;28;20058;-75
2024/02/17 07:05:25;;;;;;;1.25;0.73;;;;;;;;;;5105331;28;20035;-75
2024/02/17 07:07:56;;;;;;;1.60;0.73;;;;;;;;;;5104684;28;20047;-75
2024/02/17 07:10:27;;;;;;;0.45;0.40;;;;;;;;;;5104640;28;20565;-75
2024/02/17 07:12:59;;;;;;;3.88;0.80;;;;;;;;;;5102577;28;20529;-75
2024/02/17 07:15:30;;;;;;;3.90;0.68;;;;;;;;;;5104913;28;20044;-74
2024/02/17 07:18:03;;;;;;;1.20;0.70;;;;;;;;;;5104875;28;20051;-75
2024/02/17 07:20:34;;;;;;;5.60;0.93;;;;;;;;;;5104531;28;20047;-74
2024/02/17 07:23:05;;;;;;;2.47;0.73;;;;;;;;;;5103661;28;20054;-74
2024/02/17 07:25:35;;;;;;;2.38;0.75;;;;;;;;;;5103478;28;20052;-75
2024/02/17 07:28:06;;;;;;;1.15;0.50;;;;;;;;;;5104507;28;20415;-74
2024/02/17 07:30:36;;;;;;;0.80;0.50;;;;;;;;;;5103916;28;21176;-75
2024/02/17 07:33:09;;;;;;;1.02;0.70;;;;;;;;;;5103591;28;20066;-74
2024/02/17 07:35:42;;;;;;;4.20;1.10;;;;;;;;;;5103370;28;20067;-74
2024/02/17 07:38:12;;;;;;;5.22;0.80;;;;;;;;;;5103747;28;20077;-74
2024/02/17 07:40:43;;;;;;;0.82;0.50;;;;;;;;;;5103947;28;20448;-75
2024/02/17 07:43:13;;;;;;;4.35;1.10;;;;;;;;;;5104849;28;20044;-75
2024/02/17 07:45:43;;;;;;;4.03;0.70;;;;;;;;;;5104040;28;20065;-74
2024/02/17 07:48:13;;;;;;;2.15;0.70;;;;;;;;;;5104587;28;20054;-77
2024/02/17 07:50:44;;;;;;;2.05;0.60;;;;;;;;;;5103316;28;20058;-74
2024/02/17 07:53:14;;;;;;;1.95;0.93;;;;;;;;;;5102995;28;20528;-75
2024/02/17 07:56:33;;;;;;;1.50;0.85;;;;;;;;;;5102876;28;20525;-74
2024/02/17 07:59:23;;;;;;;0.88;0.50;;;;;;;;;;5104113;28;20044;-75
2024/02/17 08:01:53;;;;;;;3.88;0.70;;;;;;;;;;5104063;28;20062;-75
2024/02/17 08:04:24;;;;;;;0.73;0.40;;;;;;;;;;5103347;28;20395;-75
2024/02/17 08:06:54;;;;;;;0.90;0.80;;;;;;;;;;5104067;28;20523;-75
2024/02/17 08:09:24;;;;;;;2.22;0.88;;;;;;;;;;5103917;28;20051;-75
2024/02/17 08:11:54;;;;;;;5.30;0.85;;;;;;;;;;5103462;28;20058;-75
2024/02/17 08:14:26;;;;;;;0.68;0.60;;;;;;;;;;5103044;28;20797;-75
2024/02/17 08:16:59;;;;;;;4.93;0.95;;;;;;;;;;5102709;28;20066;-74
2024/02/17 08:19:29;;;;;;;2.85;1.02;;;;;;;;;;5103567;28;20065;-74
2024/02/17 08:21:59;;;;;;;0.95;0.70;;;;;;;;;;5102848;28;20075;-75
2024/02/17 08:24:29;;;;;;;5.47;1.08;;;;;;;;;;5103247;28;20062;-75
2024/02/17 08:26:59;;;;;;;4.38;0.88;;;;;;;;;;5103241;28;20502;-75
2024/02/17 08:29:30;;;;;;;0.80;0.63;;;;;;;;;;5103505;28;20660;-74
2024/02/17 08:32:01;;;;;;;2.67;1.00;;;;;;;;;;5102991;28;20062;-74
2024/02/17 08:34:32;;;;;;;0.82;0.40;;;;;;;;;;5103643;28;20387;-74
2024/02/17 08:37:02;;;;;;;1.58;0.93;;;;;;;;;;5103387;28;20533;-75
2024/02/17 08:39:32;;;;;;;0.60;0.60;;;;;;;;;;5103124;28;20062;-75
2024/02/17 08:42:03;;;;;;;1.63;0.90;;;;;;;;;;5103111;28;20592;-74
2024/02/17 08:44:33;;;;;;;1.08;1.00;;;;;;;;;;5102249;28;20056;-75
2024/02/17 08:47:04;;;;;;;0.82;0.60;;;;;;;;;;5102539;28;20502;-75
2024/02/17 08:49:35;;;;;;;0.88;0.80;;;;;;;;;;5103524;28;20043;-75
2024/02/17 08:52:06;;;;;;;3.03;0.70;;;;;;;;;;5102535;28;20529;-74
2024/02/17 08:54:38;;;;;;;1.55;0.70;;;;;;;;;;5103179;28;20047;-75
2024/02/17 08:57:08;;;;;;;1.98;0.80;;;;;;;;;;5101944;28;20067;-74
2024/02/17 08:59:39;;;;;;;0.63;0.50;;;;;;;;;;5101128;28;20055;-74
2024/02/17 09:02:16;;;;;;;4.63;0.60;;;;;;;;;;5102507;28;20063;-74
2024/02/17 09:04:47;;;;;;;4.22;1.00;;;;;;;;;;5101918;28;20056;-75
2024/02/17 09:07:17;;;;;;;2.35;0.57;;;;;;;;;;5101673;28;20430;-74
2024/02/17 09:09:54;;;;;;;1.65;0.80;;;;;;;;;;5102262;28;20056;-75
2024/02/17 09:12:26;;;;;;;1.23;0.70;;;;;;;;;;5102226;28;20105;-74
2024/02/17 09:14:56;;;;;;;7.57;1.13;;;;;;;;;;5102470;28;20500;-75
2024/02/17 09:17:28;;;;;;;6.20;1.10;;;;;;;;;;5101587;28;20055;-74
2024/02/17 09:19:58;;;;;;;3.03;0.88;;;;;;;;;;5102001;28;20059;-75
2024/02/17 09:22:29;;;;;;;7.28;0.95;;;;;;;;;;5101354;28;20047;-75
2024/02/17 09:24:59;;;;;;;6.43;1.02;;;;;;;;;;5102902;28;20039;-75
2024/02/17 09:27:29;;;;;;;4.20;0.68;;;;;;;;;;5102682;28;20058;-74
2024/02/17 09:29:59;;;;;;;2.40;0.80;;;;;;;;;;5102091;28;20055;-74
2024/02/17 09:32:29;;;;;;;4.85;1.02;;;;;;;;;;5101536;28;20544;-75
2024/02/17 09:34:59;;;;;;;2.67;1.38;;;;;;;;;;5101820;28;20704;-74
2024/02/17 09:37:31;;;;;;;1.33;1.10;;;;;;;;;;5101389;28;20058;-76
2024/02/17 09:40:01;;;;;;;3.70;1.08;;;;;;;;;;5101361;28;20048;-75
2024/02/17 09:42:31;;;;;;;2.83;0.90;;;;;;;;;;5100633;28;21054;-74
2024/02/17 09:45:02;;;;;;;1.08;0.82;;;;;;;;;;5102060;28;20052;-75
2024/02/17 09:47:35;;;;;;;0.95;0.90;;;;;;;;;;5102009;28;20048;-75
2024/02/17 09:50:06;;;;;;;1.27;0.63;;;;;;;;;;5103511;28;20058;-74
2024/02/17 09:52:38;;;;;;;4.10;0.98;;;;;;;;;;5105280;28;20047;-75
2024/02/17 09:55:25;;;;;;;1.50;0.50;;;;;;;;;;5106364;27;20971;-75
2024/02/17 10:02:11;;;;;;;1.88;0.70;;;;;;;;;;5096531;28;20525;-75
2024/02/17 10:04:58;;;;;;;1.92;1.05;;;;;;;;;;5105992;28;20039;-75
2024/02/17 10:07:31;;;;;;;9.93;1.65;;;;;;;;;;5106065;28;20051;-75
2024/02/17 10:10:01;;;;;;;6.28;1.50;;;;;;;;;;5106135;28;20047;-77
2024/02/17 10:12:32;;;;;;;4.63;1.77;;;;;;;;;;5105200;28;20537;-75
2024/02/17 10:15:03;;;;;;;5.22;1.75;;;;;;;;;;5106429;27;20043;-75
2024/02/17 10:17:34;;;;;;;4.88;1.38;;;;;;;;;;5106089;28;20044;-78
2024/02/17 10:20:04;;;;;;;9.05;1.60;;;;;;;;;;5106101;28;20564;-75
2024/02/17 10:26:22;;;;;;;7.07;1.50;;;;;;;;;;5063099;28;20061;-74
2024/02/17 10:28:57;;;;;;;8.10;2.30;;;;;;;;;;5080862;28;20473;-75
2024/02/17 10:31:28;;;;;;;8.20;2.03;;;;;;;;;;5082361;28;20055;-76
2024/02/17 10:33:58;;;;;;;5.10;1.40;;;;;;;;;;5080725;28;20198;-75
2024/02/17 10:36:29;;;;;;;15.32;2.40;;;;;;;;;;5081349;28;20040;-74
2024/02/17 10:39:01;;;;;;;7.47;1.33;;;;;;;;;;5081420;28;20052;-79
2024/02/17 10:41:34;;;;;;;4.47;1.52;;;;;;;;;;5080149;28;20562;-75
2024/02/17 10:44:05;;;;;;;3.78;1.20;;;;;;;;;;5082147;28;20067;-75
2024/02/17 10:46:36;;;;;;;9.95;2.20;;;;;;;;;;5081594;28;20083;-74
2024/02/17 10:49:33;;;;;;;2.67;1.17;;;;;;;;;;5083234;28;20514;-74
2024/02/17 10:52:08;;;;;;;7.70;3.78;;;;;;;;;;5065294;28;20056;-74
2024/02/17 10:54:56;;;;;;;10.40;2.10;;;;;;;;;;5082696;28;20067;-75
2024/02/17 10:57:33;;;;;;;3.58;1.13;;;;;;;;;;5118489;27;20055;-75
2024/02/17 11:00:07;;;;;;;6.75;1.30;;;;;;;;;;5124487;27;20055;-75
2024/02/17 11:02:42;;;;;;;2.20;1.40;;;;;;;;;;5123853;27;20048;-75
2024/02/17 11:05:12;;;;;;;1.25;0.90;;;;;;;;;;5125309;27;20058;-75
2024/02/17 11:07:44;;;;;;;8.80;1.45;;;;;;;;;;5125118;27;20043;-75
2024/02/17 11:10:17;;;;;;;6.65;1.42;;;;;;;;;;5125885;27;20043;-75
2024/02/17 11:12:51;;;;;;;4.97;1.58;;;;;;;;;;5123901;27;20445;-75
2024/02/17 11:15:21;;;;;;;2.53;1.45;;;;;;;;;;5125609;27;20047;-75
2024/02/17 11:18:00;;;;;;;8.88;1.20;;;;;;;;;;5125320;27;20672;-75
2024/02/17 11:20:32;;;;;;;11.50;1.50;;;;;;;;;;5125277;27;20043;-75
2024/02/17 11:23:04;;;;;;;4.20;1.25;;;;;;;;;;5125427;27;20506;-75
2024/02/17 11:25:44;;;;;;;2.35;0.80;;;;;;;;;;5124364;27;20051;-77
2024/02/17 11:28:22;;;;;;;4.43;0.90;;;;;;;;;;5125494;27;20046;-76
2024/02/17 11:31:00;;;;;;;4.95;0.98;;;;;;;;;;5124683;27;20050;-75
2024/02/17 11:33:31;;;;;;;2.95;1.00;;;;;;;;;;5123944;27;20058;-76
2024/02/17 11:36:08;;;;;;;3.28;1.25;;;;;;;;;;5124351;27;20062;-75
2024/02/17 11:38:39;;;;;;;3.25;0.90;;;;;;;;;;5125114;27;20066;-81
2024/02/17 11:41:15;;;;;;;11.95;1.13;;;;;;;;;;5125662;27;20043;-77
2024/02/17 11:43:46;;;;;;;5.28;1.40;;;;;;;;;;5124894;27;20560;-75
2024/02/17 11:46:19;;;;;;;1.70;0.80;;;;;;;;;;5124379;27;20039;-81
2024/02/17 11:48:53;;;;;;;6.00;0.98;;;;;;;;;;5124872;27;20054;-76
2024/02/17 11:51:25;;;;;;;10.40;1.10;;;;;;;;;;5124710;27;21157;-76
2024/02/17 11:54:00;;;;;;;21.63;1.77;;;;;;;;;;5123663;27;20046;-76
2024/02/17 11:56:33;;;;;;;12.25;0.90;;;;;;;;;;5125640;27;20437;-75
2024/02/17 11:59:04;;;;;;;2.10;1.00;;;;;;;;;;5122770;27;20409;-75
2024/02/17 12:01:34;;;;;;;4.82;0.85;;;;;;;;;;5124659;27;20050;-75
2024/02/17 12:04:09;;;;;;;2.65;0.80;;;;;;;;;;5123303;27;20141;-75
2024/02/17 12:06:40;;;;;;;2.00;0.73;;;;;;;;;;5125222;27;20047;-75
2024/02/17 12:09:11;;;;;;;5.35;0.80;;;;;;;;;;5123602;27;20116;-75
2024/02/17 12:11:43;;;;;;;1.15;0.65;;;;;;;;;;5124333;27;20078;-76
2024/02/17 12:14:22;;;;;;;1.05;0.82;;;;;;;;;;5123313;27;20047;-76
2024/02/17 12:16:53;;;;;;;6.50;0.82;;;;;;;;;;5124447;27;20706;-75
2024/02/17 12:19:25;;;;;;;2.88;0.70;;;;;;;;;;5123471;27;20046;-75
2024/02/17 12:21:56;;;;;;;1.48;0.70;;;;;;;;;;5124503;27;20050;-75
2024/02/17 12:24:27;;;;;;;1.60;0.70;;;;;;;;;;5123759;27;20043;-75
2024/02/17 12:26:58;;;;;;;5.30;1.00;;;;;;;;;;5122060;27;20555;-75
2024/02/17 12:29:28;;;;;;;2.45;0.90;;;;;;;;;;5123481;27;20517;-75
2024/02/17 12:32:00;;;;;;;5.30;1.00;;;;;;;;;;5123827;27;20043;-80
2024/02/17 12:34:35;;;;;;;4.70;1.10;;;;;;;;;;5123853;27;20099;-75
2024/02/17 12:37:08;;;;;;;4.82;1.10;;;;;;;;;;5124063;27;20050;-76
2024/02/17 12:39:39;;;;;;;1.90;0.75;;;;;;;;;;5121889;27;20640;-75
2024/02/17 12:45:48;;;;;;;10.13;1.83;;;;;;;;;;5121102;27;20051;-76
2024/02/17 12:48:20;;;;;;;3.83;1.10;;;;;;;;;;5121397;27;20058;-75
2024/02/17 12:50:51;;;;;;;4.78;1.10;;;;;;;;;;5123316;27;20043;-81
2024/02/17 12:53:39;;;;;;;2.65;1.25;;;;;;;;;;5123148;27;20059;-79
2024/02/17 12:56:09;;;;;;;1.98;0.90;;;;;;;;;;5122323;27;20043;-78
2024/02/17 12:58:40;;;;;;;1.52;0.82;;;;;;;;;;5122155;27;20051;-75
2024/02/17 13:01:11;;;;;;;5.07;1.30;;;;;;;;;;5123577;27;20054;-76
2024/02/17 13:03:45;;;;;;;4.90;1.13;;;;;;;;;;5123537;27;20051;-74
2024/02/17 13:06:16;;;;;;;4.95;1.20;;;;;;;;;;5123754;27;20047;-75
2024/02/17 13:08:47;;;;;;;3.22;0.82;;;;;;;;;;5123192;27;20047;-76
2024/02/17 13:11:22;;;;;;;3.05;1.05;;;;;;;;;;5122880;27;20066;-75
2024/02/17 13:13:53;;;;;;;4.30;1.02;;;;;;;;;;5121622;27;20051;-74
2024/02/17 13:16:23;;;;;;;6.13;0.93;;;;;;;;;;5123545;27;20493;-75
2024/02/17 13:18:56;;;;;;;5.43;1.30;;;;;;;;;;5123130;27;20055;-75
2024/02/17 13:21:29;;;;;;;3.25;1.25;;;;;;;;;;5122918;27;20055;-76
2024/02/17 13:24:02;;;;;;;2.45;1.02;;;;;;;;;;5121689;27;20050;-78
2024/02/17 13:26:33;;;;;;;2.97;0.88;;;;;;;;;;5122592;27;20054;-74
2024/02/17 13:29:03;;;;;;;2.78;0.98;;;;;;;;;;5122126;27;20062;-77
2024/02/17 13:31:34;;;;;;;6.45;0.80;;;;;;;;;;5122033;27;20050;-83
2024/02/17 13:34:11;;;;;;;1.77;0.88;;;;;;;;;;5120123;27;20054;-75
2024/02/17 13:36:44;;;;;;;1.50;0.80;;;;;;;;;;5122776;27;20047;-75
2024/02/17 13:39:15;;;;;;;5.07;1.10;;;;;;;;;;5121730;27;20051;-76
2024/02/17 13:41:45;;;;;;;2.45;1.20;;;;;;;;;;5123391;28;20058;-75
2024/02/17 13:44:17;;;;;;;3.63;0.95;;;;;;;;;;5122840;28;20051;-76
2024/02/17 13:46:47;;;;;;;3.80;1.00;;;;;;;;;;5122642;28;20043;-75
2024/02/17 13:49:17;;;;;;;1.58;0.93;;;;;;;;;;5121195;27;20498;-74
2024/02/17 13:51:49;;;;;;;6.85;0.93;;;;;;;;;;5121807;27;20051;-76
2024/02/17 13:54:20;;;;;;;2.58;0.60;;;;;;;;;;5122064;27;20047;-75
2024/02/17 13:56:51;;;;;;;2.00;1.00;;;;;;;;;;5122648;27;20059;-75
2024/02/17 13:59:21;;;;;;;3.08;1.10;;;;;;;;;;5123499;27;20062;-76
2024/02/17 14:01:51;;;;;;;7.03;1.00;;;;;;;;;;5122468;27;20176;-74
2024/02/17 14:04:25;;;;;;;2.38;0.90;;;;;;;;;;5121708;27;20051;-82
2024/02/17 14:06:56;;;;;;;1.63;0.70;;;;;;;;;;5122183;27;20055;-79
2024/02/17 14:09:26;;;;;;;14.07;0.95;;;;;;;;;;5121482;27;20520;-78
2024/02/17 14:11:57;;;;;;;6.03;0.80;;;;;;;;;;5120899;27;20429;-76
2024/02/17 14:14:29;;;;;;;33.97;1.85;;;;;;;;;;5121996;27;20066;-76
2024/02/17 14:18:01;;;;;;;4.53;1.30;;;;;;;;;;5122885;28;20524;-81
2024/02/17 14:20:32;;;;;;;15.57;1.48;;;;;;;;;;5122130;28;20405;-77
2024/02/17 14:23:03;;;;;;;6.00;1.60;;;;;;;;;;5121875;28;20050;-75
2024/02/17 14:25:36;;;;;;;18.77;2.30;;;;;;;;;;5121291;27;20062;-77
2024/02/17 14:28:06;;;;;;;4.18;1.00;;;;;;;;;;5121709;27;20055;-73
2024/02/17 14:30:36;;;;;;;2.35;0.73;;;;;;;;;;5121999;27;20059;-75
2024/02/17 14:33:08;;;;;;;1.75;0.60;;;;;;;;;;5121635;27;20058;-76
2024/02/17 14:35:40;;;;;;;2.85;0.90;;;;;;;;;;5123557;27;20051;-74
2024/02/17 14:38:11;;;;;;;3.30;0.65;;;;;;;;;;5126159;27;20050;-75
2024/02/17 14:40:41;;;;;;;1.42;0.63;;;;;;;;;;5125600;27;20051;-74
2024/02/17 14:47:21;;;;;;;8.85;1.10;;;;;;;;;;5082664;28;20053;-73
2024/02/17 14:49:52;;;;;;;1.42;0.45;;;;;;;;;;5118021;27;20058;-75
2024/02/17 14:52:24;;;;;;;2.90;1.10;;;;;;;;;;5125838;27;20043;-74
2024/02/17 14:54:54;;;;;;;2.42;0.65;;;;;;;;;;5125465;27;20054;-74
2024/02/17 14:57:25;;;;;;;0.50;0.47;;;;;;;;;;5126054;27;20353;-74
2024/02/17 14:59:56;;;;;;;4.10;0.40;;;;;;;;;;5124911;27;20047;-74
2024/02/17 15:02:26;;;;;;;1.35;0.50;;;;;;;;;;5124734;27;20047;-75
2024/02/17 15:04:56;;;;;;;0.98;0.40;;;;;;;;;;5124085;27;20059;-77
2024/02/17 15:07:26;;;;;;;1.58;0.40;;;;;;;;;;5124757;27;20062;-77
2024/02/17 15:09:57;;;;;;;0.90;0.50;;;;;;;;;;5124310;27;20059;-75
2024/02/17 15:12:28;;;;;;;1.70;0.52;;;;;;;;;;5124928;27;20058;-75
2024/02/17 15:15:00;;;;;;;3.10;0.40;;;;;;;;;;5125536;27;20047;-74
2024/02/17 15:17:30;;;;;;;1.50;0.50;;;;;;;;;;5125289;27;20524;-77
2024/02/17 15:20:00;;;;;;;2.17;0.40;;;;;;;;;;5124908;27;20063;-76
2024/02/17 15:22:32;;;;;;;0.95;0.68;;;;;;;;;;5125406;27;20074;-76
2024/02/17 15:25:03;;;;;;;1.85;0.60;;;;;;;;;;5124135;27;20043;-77
2024/02/17 15:27:35;;;;;;;1.98;0.40;;;;;;;;;;5126286;27;20413;-76
2024/02/17 15:30:07;;;;;;;3.95;0.95;;;;;;;;;;5125270;27;20046;-75
2024/02/17 15:32:38;;;;;;;1.40;0.98;;;;;;;;;;5124822;27;20050;-75
2024/02/17 15:35:08;;;;;;;0.50;0.50;;;;;;;;;;5124719;27;20047;-76
2024/02/17 15:37:39;;;;;;;0.80;0.32;;;;;;;;;;5125311;27;20054;-75
2024/02/17 15:40:11;;;;;;;2.22;1.02;;;;;;;;;;5124720;27;20555;-74
2024/02/17 15:42:41;;;;;;;1.23;0.50;;;;;;;;;;5124783;27;20043;-75
2024/02/17 15:45:12;;;;;;;2.35;0.50;;;;;;;;;;5124617;27;20416;-75